sensor_id;sensor_type;location;lat;lon;timestamp;P1;durP1;ratioP1;P2;durP2;ratioP2
4430;SDS011;2228;48.140;11.488;2022-07-29T00:00:12;2.85;;;1.40;;
4430;SDS011;2228;48.140;11.488;2022-07-29T00:02:39;2.57;;;1.77;;
4430;SDS011;2228;48.140;11.488;2022-07-29T00:05:07;3.75;;;1.70;;
4430;SDS011;2228;48.140;11.488;2022-07-29T00:07:35;2.80;;;1.42;;
4430;SDS011;2228;48.140;11.488;2022-07-29T00:10:02;3.55;;;1.63;;
4430;SDS011;2228;48.140;11.488;2022-07-29T00:12:30;3.40;;;2.00;;
4430;SDS011;2228;48.140;11.488;2022-07-29T00:14:57;2.70;;;1.60;;
4430;SDS011;2228;48.140;11.488;2022-07-29T00:17:24;3.22;;;1.92;;
4430;SDS011;2228;48.140;11.488;2022-07-29T00:19:52;2.47;;;1.70;;
4430;SDS011;2228;48.140;11.488;2022-07-29T00:22:19;2.10;;;1.88;;
4430;SDS011;2228;48.140;11.488;2022-07-29T00:24:46;3.60;;;2.00;;
4430;SDS011;2228;48.140;11.488;2022-07-29T00:27:14;2.50;;;2.10;;
4430;SDS011;2228;48.140;11.488;2022-07-29T00:29:42;3.05;;;2.10;;
4430;SDS011;2228;48.140;11.488;2022-07-29T00:32:09;5.63;;;2.08;;
4430;SDS011;2228;48.140;11.488;2022-07-29T00:34:36;2.10;;;1.90;;
4430;SDS011;2228;48.140;11.488;2022-07-29T00:37:20;2.42;;;2.15;;
4430;SDS011;2228;48.140;11.488;2022-07-29T00:39:47;3.10;;;1.90;;
4430;SDS011;2228;48.140;11.488;2022-07-29T00:42:14;3.38;;;1.75;;
4430;SDS011;2228;48.140;11.488;2022-07-29T00:44:42;3.03;;;1.80;;
4430;SDS011;2228;48.140;11.488;2022-07-29T00:47:10;2.75;;;1.50;;
4430;SDS011;2228;48.140;11.488;2022-07-29T00:49:37;3.10;;;1.60;;
4430;SDS011;2228;48.140;11.488;2022-07-29T00:52:06;2.00;;;1.60;;
4430;SDS011;2228;48.140;11.488;2022-07-29T00:54:34;1.70;;;1.42;;
4430;SDS011;2228;48.140;11.488;2022-07-29T00:57:04;2.47;;;1.40;;
4430;SDS011;2228;48.140;11.488;2022-07-29T00:59:32;3.63;;;1.73;;
4430;SDS011;2228;48.140;11.488;2022-07-29T01:02:00;1.73;;;1.63;;
4430;SDS011;2228;48.140;11.488;2022-07-29T01:04:27;2.30;;;1.50;;
4430;SDS011;2228;48.140;11.488;2022-07-29T01:06:54;2.03;;;1.40;;
4430;SDS011;2228;48.140;11.488;2022-07-29T01:09:22;1.85;;;1.40;;
4430;SDS011;2228;48.140;11.488;2022-07-29T01:11:49;2.90;;;1.30;;
4430;SDS011;2228;48.140;11.488;2022-07-29T01:14:16;2.53;;;1.30;;
4430;SDS011;2228;48.140;11.488;2022-07-29T01:16:45;1.20;;;1.10;;
4430;SDS011;2228;48.140;11.488;2022-07-29T01:19:23;2.00;;;1.30;;
4430;SDS011;2228;48.140;11.488;2022-07-29T01:22:08;6.22;;;1.40;;
4430;SDS011;2228;48.140;11.488;2022-07-29T01:24:53;2.67;;;1.20;;
4430;SDS011;2228;48.140;11.488;2022-07-29T01:27:45;1.60;;;1.10;;
4430;SDS011;2228;48.140;11.488;2022-07-29T01:30:22;1.60;;;1.30;;
4430;SDS011;2228;48.140;11.488;2022-07-29T01:32:52;1.23;;;1.10;;
4430;SDS011;2228;48.140;11.488;2022-07-29T01:35:23;1.52;;;1.30;;
4430;SDS011;2228;48.140;11.488;2022-07-29T01:37:54;3.70;;;1.17;;
4430;SDS011;2228;48.140;11.488;2022-07-29T01:40:28;3.75;;;1.20;;
4430;SDS011;2228;48.140;11.488;2022-07-29T01:43:02;1.67;;;1.30;;
4430;SDS011;2228;48.140;11.488;2022-07-29T01:45:38;1.30;;;1.05;;
4430;SDS011;2228;48.140;11.488;2022-07-29T01:48:10;1.48;;;1.20;;
4430;SDS011;2228;48.140;11.488;2022-07-29T01:50:44;1.40;;;1.02;;
4430;SDS011;2228;48.140;11.488;2022-07-29T01:53:21;1.50;;;1.40;;
4430;SDS011;2228;48.140;11.488;2022-07-29T01:55:53;1.10;;;1.00;;
4430;SDS011;2228;48.140;11.488;2022-07-29T01:58:24;1.35;;;1.20;;
4430;SDS011;2228;48.140;11.488;2022-07-29T02:00:53;4.05;;;1.52;;
4430;SDS011;2228;48.140;11.488;2022-07-29T02:03:22;1.50;;;1.05;;
4430;SDS011;2228;48.140;11.488;2022-07-29T02:05:50;1.20;;;1.10;;
4430;SDS011;2228;48.140;11.488;2022-07-29T02:08:17;1.30;;;1.20;;
4430;SDS011;2228;48.140;11.488;2022-07-29T02:10:46;1.70;;;1.13;;
4430;SDS011;2228;48.140;11.488;2022-07-29T02:13:14;2.45;;;1.40;;
4430;SDS011;2228;48.140;11.488;2022-07-29T02:15:43;1.75;;;1.13;;
4430;SDS011;2228;48.140;11.488;2022-07-29T02:18:14;2.97;;;1.30;;
4430;SDS011;2228;48.140;11.488;2022-07-29T02:20:44;1.42;;;1.10;;
4430;SDS011;2228;48.140;11.488;2022-07-29T02:23:14;1.50;;;1.20;;
4430;SDS011;2228;48.140;11.488;2022-07-29T02:25:44;1.30;;;1.20;;
4430;SDS011;2228;48.140;11.488;2022-07-29T02:28:13;1.40;;;1.20;;
4430;SDS011;2228;48.140;11.488;2022-07-29T02:30:41;1.30;;;1.20;;
4430;SDS011;2228;48.140;11.488;2022-07-29T02:33:09;1.30;;;1.10;;
4430;SDS011;2228;48.140;11.488;2022-07-29T02:35:40;2.30;;;1.23;;
4430;SDS011;2228;48.140;11.488;2022-07-29T02:38:10;2.30;;;1.30;;
4430;SDS011;2228;48.140;11.488;2022-07-29T02:40:58;1.90;;;1.30;;
4430;SDS011;2228;48.140;11.488;2022-07-29T02:43:26;1.50;;;0.90;;
4430;SDS011;2228;48.140;11.488;2022-07-29T02:45:56;1.60;;;1.27;;
4430;SDS011;2228;48.140;11.488;2022-07-29T02:48:27;1.40;;;1.10;;
4430;SDS011;2228;48.140;11.488;2022-07-29T02:51:04;2.30;;;1.20;;
4430;SDS011;2228;48.140;11.488;2022-07-29T02:53:34;1.60;;;1.17;;
4430;SDS011;2228;48.140;11.488;2022-07-29T02:56:04;1.20;;;1.10;;
4430;SDS011;2228;48.140;11.488;2022-07-29T02:58:38;1.38;;;1.20;;
4430;SDS011;2228;48.140;11.488;2022-07-29T03:01:08;2.20;;;1.50;;
4430;SDS011;2228;48.140;11.488;2022-07-29T03:03:40;1.40;;;1.20;;
4430;SDS011;2228;48.140;11.488;2022-07-29T03:06:12;1.23;;;1.10;;
4430;SDS011;2228;48.140;11.488;2022-07-29T03:08:40;2.43;;;1.10;;
4430;SDS011;2228;48.140;11.488;2022-07-29T03:11:08;1.85;;;1.23;;
4430;SDS011;2228;48.140;11.488;2022-07-29T03:13:36;1.80;;;1.30;;
4430;SDS011;2228;48.140;11.488;2022-07-29T03:16:03;1.60;;;1.50;;
4430;SDS011;2228;48.140;11.488;2022-07-29T03:18:31;1.70;;;1.40;;
4430;SDS011;2228;48.140;11.488;2022-07-29T03:20:59;1.58;;;1.40;;
4430;SDS011;2228;48.140;11.488;2022-07-29T03:23:27;1.50;;;1.40;;
4430;SDS011;2228;48.140;11.488;2022-07-29T03:25:54;1.38;;;1.10;;
4430;SDS011;2228;48.140;11.488;2022-07-29T03:28:21;2.00;;;1.30;;
4430;SDS011;2228;48.140;11.488;2022-07-29T03:30:49;1.63;;;1.33;;
4430;SDS011;2228;48.140;11.488;2022-07-29T03:33:16;1.60;;;1.30;;
4430;SDS011;2228;48.140;11.488;2022-07-29T03:35:43;1.77;;;1.50;;
4430;SDS011;2228;48.140;11.488;2022-07-29T03:38:10;2.03;;;1.58;;
4430;SDS011;2228;48.140;11.488;2022-07-29T03:40:40;2.17;;;1.43;;
4430;SDS011;2228;48.140;11.488;2022-07-29T03:43:11;1.38;;;1.27;;
4430;SDS011;2228;48.140;11.488;2022-07-29T03:45:41;2.60;;;1.50;;
4430;SDS011;2228;48.140;11.488;2022-07-29T03:48:12;1.98;;;1.60;;
4430;SDS011;2228;48.140;11.488;2022-07-29T03:50:41;2.60;;;1.50;;
4430;SDS011;2228;48.140;11.488;2022-07-29T03:53:08;1.40;;;1.30;;
4430;SDS011;2228;48.140;11.488;2022-07-29T03:55:36;1.58;;;1.40;;
4430;SDS011;2228;48.140;11.488;2022-07-29T03:58:07;3.03;;;1.30;;
4430;SDS011;2228;48.140;11.488;2022-07-29T04:00:34;1.50;;;1.40;;
4430;SDS011;2228;48.140;11.488;2022-07-29T04:03:02;1.38;;;1.23;;
4430;SDS011;2228;48.140;11.488;2022-07-29T04:05:30;1.40;;;1.10;;
4430;SDS011;2228;48.140;11.488;2022-07-29T04:07:57;3.20;;;1.40;;
4430;SDS011;2228;48.140;11.488;2022-07-29T04:10:24;3.35;;;1.30;;
4430;SDS011;2228;48.140;11.488;2022-07-29T04:12:52;3.30;;;1.00;;
4430;SDS011;2228;48.140;11.488;2022-07-29T04:15:19;1.63;;;1.20;;
4430;SDS011;2228;48.140;11.488;2022-07-29T04:17:46;3.20;;;1.40;;
4430;SDS011;2228;48.140;11.488;2022-07-29T04:20:12;1.92;;;1.50;;
4430;SDS011;2228;48.140;11.488;2022-07-29T04:22:40;2.10;;;1.40;;
4430;SDS011;2228;48.140;11.488;2022-07-29T04:25:07;3.20;;;1.50;;
4430;SDS011;2228;48.140;11.488;2022-07-29T04:27:35;1.98;;;1.58;;
4430;SDS011;2228;48.140;11.488;2022-07-29T04:30:24;5.20;;;1.60;;
4430;SDS011;2228;48.140;11.488;2022-07-29T04:32:50;3.40;;;1.67;;
4430;SDS011;2228;48.140;11.488;2022-07-29T04:35:17;1.92;;;1.50;;
4430;SDS011;2228;48.140;11.488;2022-07-29T04:37:44;2.33;;;1.38;;
4430;SDS011;2228;48.140;11.488;2022-07-29T04:40:12;5.80;;;1.52;;
4430;SDS011;2228;48.140;11.488;2022-07-29T04:42:39;3.20;;;1.30;;
4430;SDS011;2228;48.140;11.488;2022-07-29T04:45:06;1.38;;;1.20;;
4430;SDS011;2228;48.140;11.488;2022-07-29T04:47:34;1.43;;;1.27;;
4430;SDS011;2228;48.140;11.488;2022-07-29T04:50:01;1.33;;;1.10;;
4430;SDS011;2228;48.140;11.488;2022-07-29T04:52:28;1.55;;;1.10;;
4430;SDS011;2228;48.140;11.488;2022-07-29T04:54:55;1.45;;;1.20;;
4430;SDS011;2228;48.140;11.488;2022-07-29T04:57:22;1.48;;;1.20;;
4430;SDS011;2228;48.140;11.488;2022-07-29T04:59:49;5.53;;;1.55;;
4430;SDS011;2228;48.140;11.488;2022-07-29T05:02:15;2.42;;;1.40;;
4430;SDS011;2228;48.140;11.488;2022-07-29T05:04:44;2.10;;;1.30;;
4430;SDS011;2228;48.140;11.488;2022-07-29T05:07:10;2.33;;;1.50;;
4430;SDS011;2228;48.140;11.488;2022-07-29T05:09:37;1.63;;;1.40;;
4430;SDS011;2228;48.140;11.488;2022-07-29T05:12:04;1.90;;;1.37;;
4430;SDS011;2228;48.140;11.488;2022-07-29T05:14:32;1.60;;;1.25;;
4430;SDS011;2228;48.140;11.488;2022-07-29T05:16:59;1.60;;;1.10;;
4430;SDS011;2228;48.140;11.488;2022-07-29T05:19:27;1.50;;;1.20;;
4430;SDS011;2228;48.140;11.488;2022-07-29T05:21:55;2.30;;;1.35;;
4430;SDS011;2228;48.140;11.488;2022-07-29T05:24:22;1.98;;;1.50;;
4430;SDS011;2228;48.140;11.488;2022-07-29T05:26:48;4.80;;;1.50;;
4430;SDS011;2228;48.140;11.488;2022-07-29T05:29:15;3.10;;;1.52;;
4430;SDS011;2228;48.140;11.488;2022-07-29T05:31:42;2.30;;;1.50;;
4430;SDS011;2228;48.140;11.488;2022-07-29T05:34:09;2.10;;;1.40;;
4430;SDS011;2228;48.140;11.488;2022-07-29T05:36:36;1.30;;;1.20;;
4430;SDS011;2228;48.140;11.488;2022-07-29T05:39:04;3.20;;;1.58;;
4430;SDS011;2228;48.140;11.488;2022-07-29T05:41:31;3.75;;;1.58;;
4430;SDS011;2228;48.140;11.488;2022-07-29T05:43:58;4.28;;;2.03;;
4430;SDS011;2228;48.140;11.488;2022-07-29T05:46:25;3.40;;;1.60;;
4430;SDS011;2228;48.140;11.488;2022-07-29T05:48:51;3.95;;;1.45;;
4430;SDS011;2228;48.140;11.488;2022-07-29T05:51:18;2.10;;;1.40;;
4430;SDS011;2228;48.140;11.488;2022-07-29T05:53:45;3.75;;;1.42;;
4430;SDS011;2228;48.140;11.488;2022-07-29T05:56:13;4.13;;;1.80;;
4430;SDS011;2228;48.140;11.488;2022-07-29T05:58:40;1.90;;;1.57;;
4430;SDS011;2228;48.140;11.488;2022-07-29T06:01:08;2.90;;;1.40;;
4430;SDS011;2228;48.140;11.488;2022-07-29T06:03:35;1.98;;;1.40;;
4430;SDS011;2228;48.140;11.488;2022-07-29T06:06:02;1.83;;;1.42;;
4430;SDS011;2228;48.140;11.488;2022-07-29T06:08:31;2.30;;;1.20;;
4430;SDS011;2228;48.140;11.488;2022-07-29T06:11:00;3.60;;;1.40;;
4430;SDS011;2228;48.140;11.488;2022-07-29T06:13:29;1.40;;;1.30;;
4430;SDS011;2228;48.140;11.488;2022-07-29T06:15:55;1.75;;;1.20;;
4430;SDS011;2228;48.140;11.488;2022-07-29T06:18:22;2.92;;;1.45;;
4430;SDS011;2228;48.140;11.488;2022-07-29T06:20:49;1.60;;;1.20;;
4430;SDS011;2228;48.140;11.488;2022-07-29T06:23:17;3.47;;;1.70;;
4430;SDS011;2228;48.140;11.488;2022-07-29T06:25:44;2.50;;;1.60;;
4430;SDS011;2228;48.140;11.488;2022-07-29T06:28:11;4.43;;;1.70;;
4430;SDS011;2228;48.140;11.488;2022-07-29T06:30:39;2.58;;;1.30;;
4430;SDS011;2228;48.140;11.488;2022-07-29T06:33:06;1.60;;;1.40;;
4430;SDS011;2228;48.140;11.488;2022-07-29T06:35:33;2.38;;;1.60;;
4430;SDS011;2228;48.140;11.488;2022-07-29T06:38:02;2.33;;;1.30;;
4430;SDS011;2228;48.140;11.488;2022-07-29T06:40:29;1.48;;;1.17;;
4430;SDS011;2228;48.140;11.488;2022-07-29T06:43:13;5.05;;;1.40;;
4430;SDS011;2228;48.140;11.488;2022-07-29T06:45:42;1.50;;;1.30;;
4430;SDS011;2228;48.140;11.488;2022-07-29T06:48:08;1.80;;;1.30;;
4430;SDS011;2228;48.140;11.488;2022-07-29T06:50:35;2.80;;;1.40;;
4430;SDS011;2228;48.140;11.488;2022-07-29T06:53:02;3.40;;;1.40;;
4430;SDS011;2228;48.140;11.488;2022-07-29T06:55:29;1.80;;;1.20;;
4430;SDS011;2228;48.140;11.488;2022-07-29T06:57:56;2.10;;;1.40;;
4430;SDS011;2228;48.140;11.488;2022-07-29T07:00:22;3.00;;;1.50;;
4430;SDS011;2228;48.140;11.488;2022-07-29T07:02:51;1.30;;;1.20;;
4430;SDS011;2228;48.140;11.488;2022-07-29T07:05:18;1.70;;;1.33;;
4430;SDS011;2228;48.140;11.488;2022-07-29T07:07:45;1.70;;;1.37;;
4430;SDS011;2228;48.140;11.488;2022-07-29T07:10:11;2.40;;;1.50;;
4430;SDS011;2228;48.140;11.488;2022-07-29T07:12:38;1.90;;;1.20;;
4430;SDS011;2228;48.140;11.488;2022-07-29T07:15:05;4.00;;;1.13;;
4430;SDS011;2228;48.140;11.488;2022-07-29T07:17:33;1.80;;;1.40;;
4430;SDS011;2228;48.140;11.488;2022-07-29T07:20:01;4.37;;;1.30;;
4430;SDS011;2228;48.140;11.488;2022-07-29T07:22:28;1.40;;;1.30;;
4430;SDS011;2228;48.140;11.488;2022-07-29T07:24:54;2.67;;;1.00;;
4430;SDS011;2228;48.140;11.488;2022-07-29T07:27:21;3.47;;;1.40;;
4430;SDS011;2228;48.140;11.488;2022-07-29T07:29:48;2.15;;;1.15;;
4430;SDS011;2228;48.140;11.488;2022-07-29T07:32:15;3.25;;;1.13;;
4430;SDS011;2228;48.140;11.488;2022-07-29T07:34:42;3.40;;;1.50;;
4430;SDS011;2228;48.140;11.488;2022-07-29T07:37:10;1.33;;;1.00;;
4430;SDS011;2228;48.140;11.488;2022-07-29T07:39:37;1.35;;;1.05;;
4430;SDS011;2228;48.140;11.488;2022-07-29T07:42:04;1.73;;;1.00;;
4430;SDS011;2228;48.140;11.488;2022-07-29T07:44:31;1.40;;;1.00;;
4430;SDS011;2228;48.140;11.488;2022-07-29T07:46:58;2.43;;;1.10;;
4430;SDS011;2228;48.140;11.488;2022-07-29T07:49:24;1.60;;;1.00;;
4430;SDS011;2228;48.140;11.488;2022-07-29T07:51:51;3.00;;;1.20;;
4430;SDS011;2228;48.140;11.488;2022-07-29T07:54:19;1.88;;;1.00;;
4430;SDS011;2228;48.140;11.488;2022-07-29T07:56:46;3.75;;;1.13;;
4430;SDS011;2228;48.140;11.488;2022-07-29T07:59:14;3.90;;;1.50;;
4430;SDS011;2228;48.140;11.488;2022-07-29T08:01:41;2.20;;;1.10;;
4430;SDS011;2228;48.140;11.488;2022-07-29T08:04:08;3.90;;;1.20;;
4430;SDS011;2228;48.140;11.488;2022-07-29T08:06:35;2.40;;;1.10;;
4430;SDS011;2228;48.140;11.488;2022-07-29T08:09:02;1.77;;;1.40;;
4430;SDS011;2228;48.140;11.488;2022-07-29T08:11:31;1.42;;;1.20;;
4430;SDS011;2228;48.140;11.488;2022-07-29T08:13:58;3.45;;;1.30;;
4430;SDS011;2228;48.140;11.488;2022-07-29T08:16:26;2.15;;;1.25;;
4430;SDS011;2228;48.140;11.488;2022-07-29T08:18:53;1.30;;;1.20;;
4430;SDS011;2228;48.140;11.488;2022-07-29T08:21:22;1.60;;;1.25;;
4430;SDS011;2228;48.140;11.488;2022-07-29T08:23:49;2.90;;;1.48;;
4430;SDS011;2228;48.140;11.488;2022-07-29T08:26:18;1.48;;;1.20;;
4430;SDS011;2228;48.140;11.488;2022-07-29T08:28:48;3.45;;;1.30;;
4430;SDS011;2228;48.140;11.488;2022-07-29T08:31:16;2.10;;;1.40;;
4430;SDS011;2228;48.140;11.488;2022-07-29T08:33:43;2.90;;;1.60;;
4430;SDS011;2228;48.140;11.488;2022-07-29T08:36:09;1.98;;;1.40;;
4430;SDS011;2228;48.140;11.488;2022-07-29T08:38:38;1.57;;;1.30;;
4430;SDS011;2228;48.140;11.488;2022-07-29T08:41:05;1.98;;;1.33;;
4430;SDS011;2228;48.140;11.488;2022-07-29T08:43:32;2.25;;;1.20;;
4430;SDS011;2228;48.140;11.488;2022-07-29T08:46:03;2.00;;;1.38;;
4430;SDS011;2228;48.140;11.488;2022-07-29T08:48:30;3.20;;;1.50;;
4430;SDS011;2228;48.140;11.488;2022-07-29T08:50:58;2.03;;;1.60;;
4430;SDS011;2228;48.140;11.488;2022-07-29T08:53:26;2.40;;;1.58;;
4430;SDS011;2228;48.140;11.488;2022-07-29T08:55:54;2.03;;;1.60;;
4430;SDS011;2228;48.140;11.488;2022-07-29T08:58:21;6.40;;;1.60;;
4430;SDS011;2228;48.140;11.488;2022-07-29T09:00:50;1.63;;;1.40;;
4430;SDS011;2228;48.140;11.488;2022-07-29T09:03:20;1.92;;;1.30;;
4430;SDS011;2228;48.140;11.488;2022-07-29T09:05:50;3.20;;;1.50;;
4430;SDS011;2228;48.140;11.488;2022-07-29T09:08:17;2.70;;;1.60;;
4430;SDS011;2228;48.140;11.488;2022-07-29T09:10:45;2.60;;;1.50;;
4430;SDS011;2228;48.140;11.488;2022-07-29T09:13:12;3.30;;;1.30;;
4430;SDS011;2228;48.140;11.488;2022-07-29T09:15:39;5.07;;;1.50;;
4430;SDS011;2228;48.140;11.488;2022-07-29T09:18:05;2.27;;;1.73;;
4430;SDS011;2228;48.140;11.488;2022-07-29T09:20:34;2.90;;;1.50;;
4430;SDS011;2228;48.140;11.488;2022-07-29T09:23:26;2.50;;;1.60;;
4430;SDS011;2228;48.140;11.488;2022-07-29T09:25:53;4.07;;;1.77;;
4430;SDS011;2228;48.140;11.488;2022-07-29T09:28:20;2.30;;;1.60;;
4430;SDS011;2228;48.140;11.488;2022-07-29T09:30:52;1.83;;;1.60;;
4430;SDS011;2228;48.140;11.488;2022-07-29T09:33:20;2.38;;;1.63;;
4430;SDS011;2228;48.140;11.488;2022-07-29T09:35:59;1.90;;;1.65;;
4430;SDS011;2228;48.140;11.488;2022-07-29T09:38:28;3.08;;;1.70;;
4430;SDS011;2228;48.140;11.488;2022-07-29T09:40:58;3.80;;;1.60;;
4430;SDS011;2228;48.140;11.488;2022-07-29T09:43:26;2.42;;;1.40;;
4430;SDS011;2228;48.140;11.488;2022-07-29T09:45:53;1.70;;;1.57;;
4430;SDS011;2228;48.140;11.488;2022-07-29T09:48:21;2.50;;;1.67;;
4430;SDS011;2228;48.140;11.488;2022-07-29T09:50:51;2.30;;;1.60;;
4430;SDS011;2228;48.140;11.488;2022-07-29T09:56:05;2.00;;;1.70;;
4430;SDS011;2228;48.140;11.488;2022-07-29T09:58:32;2.15;;;1.75;;
4430;SDS011;2228;48.140;11.488;2022-07-29T10:00:59;4.03;;;1.80;;
4430;SDS011;2228;48.140;11.488;2022-07-29T10:03:26;3.22;;;1.90;;
4430;SDS011;2228;48.140;11.488;2022-07-29T10:06:06;4.17;;;1.93;;
4430;SDS011;2228;48.140;11.488;2022-07-29T10:08:33;3.17;;;2.10;;
4430;SDS011;2228;48.140;11.488;2022-07-29T10:11:10;3.80;;;2.00;;
4430;SDS011;2228;48.140;11.488;2022-07-29T10:13:38;4.68;;;1.83;;
4430;SDS011;2228;48.140;11.488;2022-07-29T10:16:06;4.57;;;1.80;;
4430;SDS011;2228;48.140;11.488;2022-07-29T10:18:33;3.40;;;1.70;;
4430;SDS011;2228;48.140;11.488;2022-07-29T10:21:00;2.40;;;1.80;;
4430;SDS011;2228;48.140;11.488;2022-07-29T10:23:27;4.50;;;1.95;;
4430;SDS011;2228;48.140;11.488;2022-07-29T10:25:55;2.80;;;1.67;;
4430;SDS011;2228;48.140;11.488;2022-07-29T10:28:23;2.00;;;1.50;;
4430;SDS011;2228;48.140;11.488;2022-07-29T10:30:51;3.00;;;2.00;;
4430;SDS011;2228;48.140;11.488;2022-07-29T10:33:29;3.47;;;1.70;;
4430;SDS011;2228;48.140;11.488;2022-07-29T10:36:19;2.00;;;1.80;;
4430;SDS011;2228;48.140;11.488;2022-07-29T10:38:55;2.67;;;1.98;;
4430;SDS011;2228;48.140;11.488;2022-07-29T10:41:43;1.90;;;1.60;;
4430;SDS011;2228;48.140;11.488;2022-07-29T10:44:22;1.95;;;1.60;;
4430;SDS011;2228;48.140;11.488;2022-07-29T10:46:51;7.38;;;2.42;;
4430;SDS011;2228;48.140;11.488;2022-07-29T10:49:19;6.20;;;2.80;;
4430;SDS011;2228;48.140;11.488;2022-07-29T10:52:03;4.63;;;2.40;;
4430;SDS011;2228;48.140;11.488;2022-07-29T10:54:38;3.45;;;1.80;;
4430;SDS011;2228;48.140;11.488;2022-07-29T10:57:14;3.53;;;1.80;;
4430;SDS011;2228;48.140;11.488;2022-07-29T10:59:44;4.70;;;1.90;;
4430;SDS011;2228;48.140;11.488;2022-07-29T11:05:07;2.97;;;1.60;;
4430;SDS011;2228;48.140;11.488;2022-07-29T11:07:36;1.83;;;1.55;;
4430;SDS011;2228;48.140;11.488;2022-07-29T11:12:49;2.23;;;1.80;;
4430;SDS011;2228;48.140;11.488;2022-07-29T11:15:19;2.65;;;2.20;;
4430;SDS011;2228;48.140;11.488;2022-07-29T11:18:03;3.20;;;1.83;;
4430;SDS011;2228;48.140;11.488;2022-07-29T11:20:31;3.30;;;1.40;;
4430;SDS011;2228;48.140;11.488;2022-07-29T11:23:16;3.67;;;2.00;;
4430;SDS011;2228;48.140;11.488;2022-07-29T11:25:45;2.17;;;1.98;;
4430;SDS011;2228;48.140;11.488;2022-07-29T11:28:13;4.23;;;2.80;;
4430;SDS011;2228;48.140;11.488;2022-07-29T11:30:49;2.53;;;1.70;;
4430;SDS011;2228;48.140;11.488;2022-07-29T11:33:27;2.58;;;2.00;;
4430;SDS011;2228;48.140;11.488;2022-07-29T11:36:07;3.30;;;2.00;;
4430;SDS011;2228;48.140;11.488;2022-07-29T11:38:35;3.23;;;1.90;;
4430;SDS011;2228;48.140;11.488;2022-07-29T11:41:24;3.85;;;1.80;;
4430;SDS011;2228;48.140;11.488;2022-07-29T11:43:52;2.15;;;1.67;;
4430;SDS011;2228;48.140;11.488;2022-07-29T11:49:11;3.07;;;2.00;;
4430;SDS011;2228;48.140;11.488;2022-07-29T11:51:38;2.25;;;1.73;;
4430;SDS011;2228;48.140;11.488;2022-07-29T11:54:07;2.65;;;1.92;;
4430;SDS011;2228;48.140;11.488;2022-07-29T11:56:39;3.80;;;2.00;;
4430;SDS011;2228;48.140;11.488;2022-07-29T11:59:10;5.03;;;3.08;;
4430;SDS011;2228;48.140;11.488;2022-07-29T12:01:52;4.78;;;1.63;;
4430;SDS011;2228;48.140;11.488;2022-07-29T12:04:19;4.00;;;1.90;;
4430;SDS011;2228;48.140;11.488;2022-07-29T12:06:48;2.83;;;1.50;;
4430;SDS011;2228;48.140;11.488;2022-07-29T12:09:16;6.75;;;3.30;;
4430;SDS011;2228;48.140;11.488;2022-07-29T12:11:44;4.50;;;1.60;;
4430;SDS011;2228;48.140;11.488;2022-07-29T12:14:23;7.80;;;2.10;;
4430;SDS011;2228;48.140;11.488;2022-07-29T12:16:53;1.83;;;1.50;;
4430;SDS011;2228;48.140;11.488;2022-07-29T12:19:20;4.00;;;2.07;;
4430;SDS011;2228;48.140;11.488;2022-07-29T12:21:47;2.50;;;1.77;;
4430;SDS011;2228;48.140;11.488;2022-07-29T12:24:15;4.10;;;2.00;;
4430;SDS011;2228;48.140;11.488;2022-07-29T12:26:49;3.60;;;2.00;;
4430;SDS011;2228;48.140;11.488;2022-07-29T12:29:17;3.97;;;1.65;;
4430;SDS011;2228;48.140;11.488;2022-07-29T12:31:44;3.40;;;1.80;;
4430;SDS011;2228;48.140;11.488;2022-07-29T12:34:13;2.28;;;1.85;;
4430;SDS011;2228;48.140;11.488;2022-07-29T12:36:42;2.90;;;1.80;;
4430;SDS011;2228;48.140;11.488;2022-07-29T12:39:09;3.70;;;1.90;;
4430;SDS011;2228;48.140;11.488;2022-07-29T12:41:37;3.78;;;2.20;;
4430;SDS011;2228;48.140;11.488;2022-07-29T12:44:04;3.30;;;1.80;;
4430;SDS011;2228;48.140;11.488;2022-07-29T12:46:31;2.15;;;1.67;;
4430;SDS011;2228;48.140;11.488;2022-07-29T12:48:58;6.75;;;2.70;;
4430;SDS011;2228;48.140;11.488;2022-07-29T12:51:31;7.25;;;3.50;;
4430;SDS011;2228;48.140;11.488;2022-07-29T12:54:03;7.07;;;3.70;;
4430;SDS011;2228;48.140;11.488;2022-07-29T12:56:33;5.93;;;2.67;;
4430;SDS011;2228;48.140;11.488;2022-07-29T12:59:00;1.73;;;1.63;;
4430;SDS011;2228;48.140;11.488;2022-07-29T13:01:38;5.10;;;2.40;;
4430;SDS011;2228;48.140;11.488;2022-07-29T13:04:04;3.45;;;2.22;;
4430;SDS011;2228;48.140;11.488;2022-07-29T13:06:34;2.80;;;2.00;;
4430;SDS011;2228;48.140;11.488;2022-07-29T13:09:10;4.93;;;1.80;;
4430;SDS011;2228;48.140;11.488;2022-07-29T13:11:39;5.72;;;2.10;;
4430;SDS011;2228;48.140;11.488;2022-07-29T13:14:08;3.10;;;1.70;;
4430;SDS011;2228;48.140;11.488;2022-07-29T13:16:35;3.45;;;2.00;;
4430;SDS011;2228;48.140;11.488;2022-07-29T13:19:06;4.03;;;2.00;;
4430;SDS011;2228;48.140;11.488;2022-07-29T13:21:36;2.50;;;2.00;;
4430;SDS011;2228;48.140;11.488;2022-07-29T13:24:04;3.83;;;1.75;;
4430;SDS011;2228;48.140;11.488;2022-07-29T13:26:31;3.80;;;2.20;;
4430;SDS011;2228;48.140;11.488;2022-07-29T13:28:58;3.63;;;2.13;;
4430;SDS011;2228;48.140;11.488;2022-07-29T13:31:27;5.57;;;2.20;;
4430;SDS011;2228;48.140;11.488;2022-07-29T13:33:54;3.55;;;1.90;;
4430;SDS011;2228;48.140;11.488;2022-07-29T13:36:21;3.05;;;1.75;;
4430;SDS011;2228;48.140;11.488;2022-07-29T13:38:49;3.28;;;1.98;;
4430;SDS011;2228;48.140;11.488;2022-07-29T13:41:16;4.00;;;2.20;;
4430;SDS011;2228;48.140;11.488;2022-07-29T13:43:43;4.68;;;2.00;;
4430;SDS011;2228;48.140;11.488;2022-07-29T13:46:10;3.80;;;2.00;;
4430;SDS011;2228;48.140;11.488;2022-07-29T13:48:37;2.22;;;1.70;;
4430;SDS011;2228;48.140;11.488;2022-07-29T13:51:04;2.37;;;1.70;;
4430;SDS011;2228;48.140;11.488;2022-07-29T13:53:31;5.15;;;1.90;;
4430;SDS011;2228;48.140;11.488;2022-07-29T13:55:59;2.10;;;1.60;;
4430;SDS011;2228;48.140;11.488;2022-07-29T13:58:26;6.03;;;1.50;;
4430;SDS011;2228;48.140;11.488;2022-07-29T14:00:53;6.45;;;1.52;;
4430;SDS011;2228;48.140;11.488;2022-07-29T14:03:20;2.95;;;1.60;;
4430;SDS011;2228;48.140;11.488;2022-07-29T14:05:46;2.50;;;1.60;;
4430;SDS011;2228;48.140;11.488;2022-07-29T14:08:13;3.30;;;1.70;;
4430;SDS011;2228;48.140;11.488;2022-07-29T14:10:40;3.17;;;1.50;;
4430;SDS011;2228;48.140;11.488;2022-07-29T14:13:08;3.78;;;1.30;;
4430;SDS011;2228;48.140;11.488;2022-07-29T14:15:35;3.38;;;1.55;;
4430;SDS011;2228;48.140;11.488;2022-07-29T14:18:02;3.85;;;1.55;;
4430;SDS011;2228;48.140;11.488;2022-07-29T14:20:29;4.00;;;1.60;;
4430;SDS011;2228;48.140;11.488;2022-07-29T14:22:56;1.85;;;1.70;;
4430;SDS011;2228;48.140;11.488;2022-07-29T14:25:23;2.00;;;1.42;;
4430;SDS011;2228;48.140;11.488;2022-07-29T14:27:50;1.97;;;1.80;;
4430;SDS011;2228;48.140;11.488;2022-07-29T14:30:19;2.22;;;1.25;;
4430;SDS011;2228;48.140;11.488;2022-07-29T14:32:46;3.30;;;1.70;;
4430;SDS011;2228;48.140;11.488;2022-07-29T14:35:13;3.85;;;1.58;;
4430;SDS011;2228;48.140;11.488;2022-07-29T14:37:40;2.03;;;1.70;;
4430;SDS011;2228;48.140;11.488;2022-07-29T14:40:08;1.55;;;1.40;;
4430;SDS011;2228;48.140;11.488;2022-07-29T14:42:35;3.00;;;1.80;;
4430;SDS011;2228;48.140;11.488;2022-07-29T14:45:03;4.00;;;1.80;;
4430;SDS011;2228;48.140;11.488;2022-07-29T14:47:32;2.20;;;1.80;;
4430;SDS011;2228;48.140;11.488;2022-07-29T14:49:59;2.90;;;1.80;;
4430;SDS011;2228;48.140;11.488;2022-07-29T14:52:26;3.53;;;1.65;;
4430;SDS011;2228;48.140;11.488;2022-07-29T14:54:53;2.30;;;1.90;;
4430;SDS011;2228;48.140;11.488;2022-07-29T14:57:20;1.60;;;1.50;;
4430;SDS011;2228;48.140;11.488;2022-07-29T14:59:47;2.20;;;1.70;;
4430;SDS011;2228;48.140;11.488;2022-07-29T15:02:13;3.85;;;1.50;;
4430;SDS011;2228;48.140;11.488;2022-07-29T15:04:41;3.05;;;2.00;;
4430;SDS011;2228;48.140;11.488;2022-07-29T15:07:09;3.92;;;2.00;;
4430;SDS011;2228;48.140;11.488;2022-07-29T15:09:36;2.30;;;1.80;;
4430;SDS011;2228;48.140;11.488;2022-07-29T15:12:03;3.42;;;1.90;;
4430;SDS011;2228;48.140;11.488;2022-07-29T15:14:30;3.30;;;2.00;;
4430;SDS011;2228;48.140;11.488;2022-07-29T15:16:57;2.13;;;1.92;;
4430;SDS011;2228;48.140;11.488;2022-07-29T15:19:24;5.65;;;2.08;;
4430;SDS011;2228;48.140;11.488;2022-07-29T15:21:53;4.18;;;2.10;;